Sanjo, Japan
Current Conditions -  °F | °C
As of 9:00 PM on Thursday 27 Nov 2014 (Local Time) from RJSN Reporting Station
Broken Clouds Broken Clouds  
Wind Chill: 52°   Ceiling: 5000
Heat Index: 52°   Visibility: 6mi
Dew Point: 48°   Wind: 6mph
Humidity: 88%   Direction: 160°SSE
Pressure: 30.24"   Gusts: NA
Location:  37.62°N, 138.96°E
Report Text: RJSN 271200Z 16005KT 9999 FEW020 BKN050 11/09 Q1024
Loading
Personal Weather Stations






























Interactive Weather Map New forecast layout! Learn more

10-Day Weather Forecast

Advertisements
Track Severe Weather on mobile